sensor_id;sensor_type;location;lat;lon;timestamp;pressure;altitude;pressure_sealevel;temperature;humidity
70407;BME280;57821;52.202;0.154;2022-09-13T00:01:57;101122.47;;;21.67;69.69
70407;BME280;57821;52.202;0.154;2022-09-13T00:04:23;101116.59;;;21.61;69.61
70407;BME280;57821;52.202;0.154;2022-09-13T00:06:50;101106.34;;;21.55;69.52
70407;BME280;57821;52.202;0.154;2022-09-13T00:09:16;101105.47;;;21.54;69.51
70407;BME280;57821;52.202;0.154;2022-09-13T00:11:42;101114.31;;;21.53;69.71
70407;BME280;57821;52.202;0.154;2022-09-13T00:14:09;101117.22;;;21.47;69.75
70407;BME280;57821;52.202;0.154;2022-09-13T00:16:35;101121.63;;;21.47;69.92
70407;BME280;57821;52.202;0.154;2022-09-13T00:19:02;101126.09;;;21.45;69.92
70407;BME280;57821;52.202;0.154;2022-09-13T00:21:28;101130.72;;;21.40;69.97
70407;BME280;57821;52.202;0.154;2022-09-13T00:23:55;101135.19;;;21.38;70.27
70407;BME280;57821;52.202;0.154;2022-09-13T00:26:25;101144.31;;;21.30;70.42
70407;BME280;57821;52.202;0.154;2022-09-13T00:28:56;101107.19;;;21.13;70.24
70407;BME280;57821;52.202;0.154;2022-09-13T00:31:23;101136.44;;;21.29;70.68
70407;BME280;57821;52.202;0.154;2022-09-13T00:33:50;101141.72;;;21.29;70.01
70407;BME280;57821;52.202;0.154;2022-09-13T00:36:17;101140.00;;;21.28;70.43
70407;BME280;57821;52.202;0.154;2022-09-13T00:38:44;101149.69;;;21.27;70.34
70407;BME280;57821;52.202;0.154;2022-09-13T00:41:14;101111.97;;;21.04;70.45
70407;BME280;57821;52.202;0.154;2022-09-13T00:46:09;101155.16;;;21.23;70.27
70407;BME280;57821;52.202;0.154;2022-09-13T00:48:37;101161.41;;;21.20;70.26
70407;BME280;57821;52.202;0.154;2022-09-13T00:51:04;101128.72;;;21.03;70.39
70407;BME280;57821;52.202;0.154;2022-09-13T00:53:35;101126.25;;;20.98;70.28
70407;BME280;57821;52.202;0.154;2022-09-13T00:56:24;101105.88;;;20.81;70.27
70407;BME280;57821;52.202;0.154;2022-09-13T00:59:07;101145.38;;;21.03;70.19
70407;BME280;57821;52.202;0.154;2022-09-13T01:01:40;101111.91;;;20.85;70.44
70407;BME280;57821;52.202;0.154;2022-09-13T01:04:08;101144.66;;;21.00;70.04
70407;BME280;57821;52.202;0.154;2022-09-13T01:06:38;101143.94;;;20.96;69.84
70407;BME280;57821;52.202;0.154;2022-09-13T01:09:07;101150.19;;;20.94;69.87
70407;BME280;57821;52.202;0.154;2022-09-13T01:11:49;101150.19;;;20.94;69.91
70407;BME280;57821;52.202;0.154;2022-09-13T01:14:17;101151.28;;;20.88;70.24
70407;BME280;57821;52.202;0.154;2022-09-13T01:16:45;101142.75;;;20.81;69.71
70407;BME280;57821;52.202;0.154;2022-09-13T01:19:13;101138.50;;;20.79;69.70
70407;BME280;57821;52.202;0.154;2022-09-13T01:22:22;101130.81;;;20.73;69.67
70407;BME280;57821;52.202;0.154;2022-09-13T01:25:18;101102.00;;;20.46;69.87
70407;BME280;57821;52.202;0.154;2022-09-13T01:30:27;101105.78;;;20.39;69.82
70407;BME280;57821;52.202;0.154;2022-09-13T01:34:22;101128.09;;;20.53;70.32
70407;BME280;57821;52.202;0.154;2022-09-13T01:48:00;101138.47;;;20.34;70.38
70407;BME280;57821;52.202;0.154;2022-09-13T01:50:41;101122.25;;;20.21;70.92
70407;BME280;57821;52.202;0.154;2022-09-13T01:53:32;101139.53;;;20.28;70.64
70407;BME280;57821;52.202;0.154;2022-09-13T01:56:10;101133.63;;;20.22;70.38
70407;BME280;57821;52.202;0.154;2022-09-13T02:03:42;101150.47;;;20.18;71.24
70407;BME280;57821;52.202;0.154;2022-09-13T02:06:14;101157.41;;;20.20;70.80
70407;BME280;57821;52.202;0.154;2022-09-13T02:08:46;101123.09;;;19.98;70.42
70407;BME280;57821;52.202;0.154;2022-09-13T02:11:16;101129.41;;;19.94;71.15
70407;BME280;57821;52.202;0.154;2022-09-13T02:13:57;101163.00;;;20.11;70.85
70407;BME280;57821;52.202;0.154;2022-09-13T02:16:36;101128.66;;;19.91;71.00
70407;BME280;57821;52.202;0.154;2022-09-13T02:19:40;101155.38;;;20.03;69.58
70407;BME280;57821;52.202;0.154;2022-09-13T02:22:12;101157.22;;;20.01;68.82
70407;BME280;57821;52.202;0.154;2022-09-13T02:24:47;101158.25;;;19.97;67.56
70407;BME280;57821;52.202;0.154;2022-09-13T02:27:24;101123.16;;;19.74;65.66
70407;BME280;57821;52.202;0.154;2022-09-13T02:29:56;101156.16;;;19.82;65.79
70407;BME280;57821;52.202;0.154;2022-09-13T02:35:20;101148.75;;;19.68;65.33
70407;BME280;57821;52.202;0.154;2022-09-13T02:37:56;101134.41;;;19.52;65.74
70407;BME280;57821;52.202;0.154;2022-09-13T02:40:27;101152.72;;;19.55;65.51
70407;BME280;57821;52.202;0.154;2022-09-13T02:43:00;101144.41;;;19.41;65.11
70407;BME280;57821;52.202;0.154;2022-09-13T02:45:35;101174.91;;;19.47;65.25
70407;BME280;57821;52.202;0.154;2022-09-13T02:48:16;101156.09;;;19.33;65.62
70407;BME280;57821;52.202;0.154;2022-09-13T02:51:02;101164.03;;;19.31;64.75
70407;BME280;57821;52.202;0.154;2022-09-13T02:53:46;101147.91;;;19.15;65.71
70407;BME280;57821;52.202;0.154;2022-09-13T02:56:33;101168.78;;;19.20;65.52
70407;BME280;57821;52.202;0.154;2022-09-13T03:01:34;101175.47;;;19.04;65.74
70407;BME280;57821;52.202;0.154;2022-09-13T03:04:03;101172.09;;;18.99;65.93
70407;BME280;57821;52.202;0.154;2022-09-13T03:06:29;101173.09;;;18.95;65.40
70407;BME280;57821;52.202;0.154;2022-09-13T03:08:59;101143.28;;;18.69;65.65
70407;BME280;57821;52.202;0.154;2022-09-13T03:16:52;101158.16;;;18.69;65.28
70407;BME280;57821;52.202;0.154;2022-09-13T03:19:52;101164.53;;;18.60;65.78
70407;BME280;57821;52.202;0.154;2022-09-13T03:28:02;101172.25;;;18.35;66.09
70407;BME280;57821;52.202;0.154;2022-09-13T03:30:34;101173.41;;;18.27;65.77
70407;BME280;57821;52.202;0.154;2022-09-13T03:35:37;101172.91;;;18.13;65.42
70407;BME280;57821;52.202;0.154;2022-09-13T03:41:23;101155.13;;;17.93;65.81
70407;BME280;57821;52.202;0.154;2022-09-13T03:43:56;101131.31;;;17.68;66.18
70407;BME280;57821;52.202;0.154;2022-09-13T03:46:28;101135.88;;;17.60;66.36
70407;BME280;57821;52.202;0.154;2022-09-13T03:48:59;101132.59;;;17.52;66.42
70407;BME280;57821;52.202;0.154;2022-09-13T03:51:27;101168.16;;;17.63;66.33
70407;BME280;57821;52.202;0.154;2022-09-13T03:54:00;101139.94;;;17.38;66.24
70407;BME280;57821;52.202;0.154;2022-09-13T03:56:27;101172.81;;;17.51;66.90
70407;BME280;57821;52.202;0.154;2022-09-13T03:58:54;101168.59;;;17.45;66.76
70407;BME280;57821;52.202;0.154;2022-09-13T04:01:22;101173.97;;;17.39;66.42
70407;BME280;57821;52.202;0.154;2022-09-13T04:03:50;101164.56;;;17.31;66.53
70407;BME280;57821;52.202;0.154;2022-09-13T04:06:22;101162.09;;;17.24;66.50
70407;BME280;57821;52.202;0.154;2022-09-13T04:08:48;101169.22;;;17.19;66.81
70407;BME280;57821;52.202;0.154;2022-09-13T04:11:15;101163.13;;;17.19;66.52
70407;BME280;57821;52.202;0.154;2022-09-13T04:13:41;101163.25;;;17.13;66.85
70407;BME280;57821;52.202;0.154;2022-09-13T04:16:08;101153.84;;;17.06;66.26
70407;BME280;57821;52.202;0.154;2022-09-13T04:18:35;101158.25;;;17.04;66.74
70407;BME280;57821;52.202;0.154;2022-09-13T04:21:01;101152.28;;;16.99;66.96
70407;BME280;57821;52.202;0.154;2022-09-13T04:23:29;101158.53;;;16.93;66.97
70407;BME280;57821;52.202;0.154;2022-09-13T04:26:00;101147.50;;;16.79;67.22
70407;BME280;57821;52.202;0.154;2022-09-13T04:28:27;101157.09;;;16.78;67.00
70407;BME280;57821;52.202;0.154;2022-09-13T04:30:53;101156.22;;;16.78;67.15
70407;BME280;57821;52.202;0.154;2022-09-13T04:33:20;101165.03;;;16.75;67.53
70407;BME280;57821;52.202;0.154;2022-09-13T04:35:46;101170.31;;;16.72;67.92
70407;BME280;57821;52.202;0.154;2022-09-13T04:38:13;101173.06;;;16.68;67.99
70407;BME280;57821;52.202;0.154;2022-09-13T04:40:39;101178.38;;;16.65;68.16
70407;BME280;57821;52.202;0.154;2022-09-13T04:43:06;101188.03;;;16.61;67.97
70407;BME280;57821;52.202;0.154;2022-09-13T04:45:32;101183.75;;;16.56;68.24
70407;BME280;57821;52.202;0.154;2022-09-13T04:47:59;101185.56;;;16.54;68.68
70407;BME280;57821;52.202;0.154;2022-09-13T04:50:25;101198.69;;;16.52;68.91
70407;BME280;57821;52.202;0.154;2022-09-13T04:52:53;101173.81;;;16.31;68.70
70407;BME280;57821;52.202;0.154;2022-09-13T04:55:20;101198.84;;;16.44;68.67
70407;BME280;57821;52.202;0.154;2022-09-13T04:57:51;101180.88;;;16.26;69.15
70407;BME280;57821;52.202;0.154;2022-09-13T05:00:18;101214.63;;;16.40;69.04
70407;BME280;57821;52.202;0.154;2022-09-13T05:02:44;101210.38;;;16.34;69.12
70407;BME280;57821;52.202;0.154;2022-09-13T05:05:11;101213.84;;;16.36;69.36
70407;BME280;57821;52.202;0.154;2022-09-13T05:07:37;101213.88;;;16.35;69.39
70407;BME280;57821;52.202;0.154;2022-09-13T05:10:04;101218.25;;;16.33;69.48
70407;BME280;57821;52.202;0.154;2022-09-13T05:12:31;101213.97;;;16.30;69.33
70407;BME280;57821;52.202;0.154;2022-09-13T05:14:57;101215.75;;;16.27;69.29
70407;BME280;57821;52.202;0.154;2022-09-13T05:17:24;101211.47;;;16.24;69.33
70407;BME280;57821;52.202;0.154;2022-09-13T05:19:50;101208.91;;;16.21;69.36
70407;BME280;57821;52.202;0.154;2022-09-13T05:22:17;101213.28;;;16.19;69.13
70407;BME280;57821;52.202;0.154;2022-09-13T05:24:43;101217.72;;;16.17;69.26
70407;BME280;57821;52.202;0.154;2022-09-13T05:27:09;101217.81;;;16.11;68.98
70407;BME280;57821;52.202;0.154;2022-09-13T05:29:36;101224.84;;;16.09;69.35
70407;BME280;57821;52.202;0.154;2022-09-13T05:32:02;101224.91;;;16.06;69.19
70407;BME280;57821;52.202;0.154;2022-09-13T05:34:29;101225.88;;;16.00;69.29
70407;BME280;57821;52.202;0.154;2022-09-13T05:36:55;101232.88;;;16.00;69.08
70407;BME280;57821;52.202;0.154;2022-09-13T05:39:22;101229.41;;;15.98;69.19
70407;BME280;57821;52.202;0.154;2022-09-13T05:42:01;101232.09;;;15.95;69.38
70407;BME280;57821;52.202;0.154;2022-09-13T05:44:28;101233.84;;;15.93;69.33
70407;BME280;57821;52.202;0.154;2022-09-13T05:46:54;101228.69;;;15.90;69.74
70407;BME280;57821;52.202;0.154;2022-09-13T05:49:21;101231.34;;;15.88;69.72
70407;BME280;57821;52.202;0.154;2022-09-13T05:51:47;101235.72;;;15.85;69.95
70407;BME280;57821;52.202;0.154;2022-09-13T05:54:14;101237.53;;;15.83;69.78
70407;BME280;57821;52.202;0.154;2022-09-13T05:56:40;101242.81;;;15.80;69.83
70407;BME280;57821;52.202;0.154;2022-09-13T05:59:10;101224.72;;;15.68;69.85
70407;BME280;57821;52.202;0.154;2022-09-13T06:01:37;101248.97;;;15.77;69.99
70407;BME280;57821;52.202;0.154;2022-09-13T06:04:04;101246.38;;;15.76;70.01
70407;BME280;57821;52.202;0.154;2022-09-13T06:06:30;101243.84;;;15.71;69.77
70407;BME280;57821;52.202;0.154;2022-09-13T06:08:57;101249.88;;;15.75;69.92
70407;BME280;57821;52.202;0.154;2022-09-13T06:11:24;101246.38;;;15.74;69.98
70407;BME280;57821;52.202;0.154;2022-09-13T06:13:51;101237.78;;;15.68;69.85
70407;BME280;57821;52.202;0.154;2022-09-13T06:16:18;101232.50;;;15.71;69.96
70407;BME280;57821;52.202;0.154;2022-09-13T06:18:44;101239.41;;;15.75;69.82
70407;BME280;57821;52.202;0.154;2022-09-13T06:21:13;101245.50;;;15.75;69.71
70407;BME280;57821;52.202;0.154;2022-09-13T06:23:40;101235.91;;;15.76;69.67
70407;BME280;57821;52.202;0.154;2022-09-13T06:26:10;101232.41;;;15.77;69.52
70407;BME280;57821;52.202;0.154;2022-09-13T06:28:37;101228.91;;;15.78;69.53
70407;BME280;57821;52.202;0.154;2022-09-13T06:31:12;101197.84;;;15.59;69.59
70407;BME280;57821;52.202;0.154;2022-09-13T06:33:41;101231.53;;;15.78;69.48
70407;BME280;57821;52.202;0.154;2022-09-13T06:36:13;101187.50;;;15.53;69.19
70407;BME280;57821;52.202;0.154;2022-09-13T06:38:40;101237.63;;;15.77;69.47
70407;BME280;57821;52.202;0.154;2022-09-13T06:41:09;101227.22;;;15.74;69.56
70407;BME280;57821;52.202;0.154;2022-09-13T06:43:37;101229.69;;;15.83;69.26
70407;BME280;57821;52.202;0.154;2022-09-13T06:46:12;101242.69;;;15.86;69.28
70407;BME280;57821;52.202;0.154;2022-09-13T06:48:40;101234.97;;;15.80;69.24
70407;BME280;57821;52.202;0.154;2022-09-13T06:51:13;101247.09;;;15.84;69.33
70407;BME280;57821;52.202;0.154;2022-09-13T06:53:43;101254.00;;;15.88;69.31
70407;BME280;57821;52.202;0.154;2022-09-13T06:56:19;101243.53;;;15.88;69.25
70407;BME280;57821;52.202;0.154;2022-09-13T06:58:48;101246.06;;;15.94;69.02
70407;BME280;57821;52.202;0.154;2022-09-13T07:04:03;101204.41;;;15.83;68.72
70407;BME280;57821;52.202;0.154;2022-09-13T07:06:32;101207.78;;;15.90;68.40
70407;BME280;57821;52.202;0.154;2022-09-13T07:09:00;101229.25;;;16.07;68.25
70407;BME280;57821;52.202;0.154;2022-09-13T07:11:33;101205.94;;;15.95;68.05
70407;BME280;57821;52.202;0.154;2022-09-13T07:14:00;101237.69;;;16.20;68.18
70407;BME280;57821;52.202;0.154;2022-09-13T07:16:29;101228.06;;;16.23;68.38
70407;BME280;57821;52.202;0.154;2022-09-13T07:18:59;101228.84;;;16.27;68.44
70407;BME280;57821;52.202;0.154;2022-09-13T07:21:26;101226.13;;;16.31;68.27
70407;BME280;57821;52.202;0.154;2022-09-13T07:23:54;101234.78;;;16.36;68.20
70407;BME280;57821;52.202;0.154;2022-09-13T07:26:21;101236.44;;;16.40;68.07
70407;BME280;57821;52.202;0.154;2022-09-13T07:28:51;101196.59;;;16.26;67.84
70407;BME280;57821;52.202;0.154;2022-09-13T07:31:25;101240.59;;;16.49;67.64
70407;BME280;57821;52.202;0.154;2022-09-13T07:33:54;101198.28;;;16.30;67.77
70407;BME280;57821;52.202;0.154;2022-09-13T07:36:21;101226.59;;;16.53;67.50
70407;BME280;57821;52.202;0.154;2022-09-13T07:38:48;101235.13;;;16.63;67.60
70407;BME280;57821;52.202;0.154;2022-09-13T07:41:17;101199.56;;;16.51;67.74
70407;BME280;57821;52.202;0.154;2022-09-13T07:43:44;101234.00;;;16.74;67.32
70407;BME280;57821;52.202;0.154;2022-09-13T07:46:31;101236.53;;;16.79;67.62
70407;BME280;57821;52.202;0.154;2022-09-13T07:48:59;101216.47;;;16.78;67.39
70407;BME280;57821;52.202;0.154;2022-09-13T07:51:31;101202.69;;;16.70;67.15
70407;BME280;57821;52.202;0.154;2022-09-13T07:54:02;101228.34;;;16.94;67.15
70407;BME280;57821;52.202;0.154;2022-09-13T07:56:34;101229.09;;;16.99;66.80
70407;BME280;57821;52.202;0.154;2022-09-13T07:59:03;101238.44;;;17.11;66.43
70407;BME280;57821;52.202;0.154;2022-09-13T08:04:03;101209.66;;;17.09;66.14
70407;BME280;57821;52.202;0.154;2022-09-13T08:06:31;101244.00;;;17.34;65.84
70407;BME280;57821;52.202;0.154;2022-09-13T08:08:58;101242.03;;;17.44;66.26
70407;BME280;57821;52.202;0.154;2022-09-13T08:11:33;101194.28;;;17.31;65.62
70407;BME280;57821;52.202;0.154;2022-09-13T08:14:00;101241.63;;;17.60;65.95
70407;BME280;57821;52.202;0.154;2022-09-13T08:16:27;101240.59;;;17.68;65.47
70407;BME280;57821;52.202;0.154;2022-09-13T08:18:56;101238.69;;;17.74;65.33
70407;BME280;57821;52.202;0.154;2022-09-13T08:21:23;101248.84;;;17.86;65.42
70407;BME280;57821;52.202;0.154;2022-09-13T08:23:54;101239.94;;;17.93;64.80
70407;BME280;57821;52.202;0.154;2022-09-13T08:26:21;101241.47;;;18.00;64.50
70407;BME280;57821;52.202;0.154;2022-09-13T08:28:48;101235.13;;;18.09;64.62
70407;BME280;57821;52.202;0.154;2022-09-13T08:31:15;101228.75;;;18.18;64.30
70407;BME280;57821;52.202;0.154;2022-09-13T08:33:43;101232.97;;;18.23;64.15
70407;BME280;57821;52.202;0.154;2022-09-13T08:36:12;101242.38;;;18.32;63.11
70407;BME280;57821;52.202;0.154;2022-09-13T08:38:53;101243.06;;;18.38;63.20
70407;BME280;57821;52.202;0.154;2022-09-13T08:44:26;101250.31;;;18.61;62.79
70407;BME280;57821;52.202;0.154;2022-09-13T08:47:21;101243.91;;;18.70;63.04
70407;BME280;57821;52.202;0.154;2022-09-13T08:49:45;101226.28;;;18.75;62.78
70407;BME280;57821;52.202;0.154;2022-09-13T08:54:40;101239.63;;;18.97;61.64
70407;BME280;57821;52.202;0.154;2022-09-13T08:57:47;101214.38;;;18.91;62.38
70407;BME280;57821;52.202;0.154;2022-09-13T09:00:21;101196.03;;;18.90;61.97
70407;BME280;57821;52.202;0.154;2022-09-13T09:02:59;101235.19;;;19.26;61.39
70407;BME280;57821;52.202;0.154;2022-09-13T09:05:30;101218.50;;;19.27;61.93
70407;BME280;57821;52.202;0.154;2022-09-13T09:08:05;101224.94;;;19.45;61.13
70407;BME280;57821;52.202;0.154;2022-09-13T09:10:54;101226.38;;;19.55;61.48
70407;BME280;57821;52.202;0.154;2022-09-13T09:16:01;101201.34;;;19.68;60.61
70407;BME280;57821;52.202;0.154;2022-09-13T09:18:41;101203.63;;;19.79;59.63
70407;BME280;57821;52.202;0.154;2022-09-13T09:21:15;101167.31;;;19.64;59.98
70407;BME280;57821;52.202;0.154;2022-09-13T09:23:49;101194.75;;;19.82;59.62
70407;BME280;57821;52.202;0.154;2022-09-13T09:29:11;101185.09;;;19.82;59.08
70407;BME280;57821;52.202;0.154;2022-09-13T09:34:39;101159.78;;;19.80;59.39
70407;BME280;57821;52.202;0.154;2022-09-13T09:37:26;101166.41;;;19.90;59.75
70407;BME280;57821;52.202;0.154;2022-09-13T09:39:57;101172.38;;;19.95;60.14
70407;BME280;57821;52.202;0.154;2022-09-13T09:42:27;101171.97;;;20.05;59.86
70407;BME280;57821;52.202;0.154;2022-09-13T09:44:59;101136.16;;;20.01;59.43
70407;BME280;57821;52.202;0.154;2022-09-13T09:47:30;101147.09;;;20.14;58.56
70407;BME280;57821;52.202;0.154;2022-09-13T09:50:09;101152.88;;;20.24;58.41
70407;BME280;57821;52.202;0.154;2022-09-13T09:52:47;101189.59;;;20.52;57.98
70407;BME280;57821;52.202;0.154;2022-09-13T09:57:58;101157.66;;;20.61;58.42
70407;BME280;57821;52.202;0.154;2022-09-13T10:00:32;101159.69;;;20.76;58.96
70407;BME280;57821;52.202;0.154;2022-09-13T10:03:02;101189.69;;;21.17;58.17
70407;BME280;57821;52.202;0.154;2022-09-13T10:05:30;101191.09;;;21.25;57.21
70407;BME280;57821;52.202;0.154;2022-09-13T10:08:06;101197.72;;;21.36;56.05
70407;BME280;57821;52.202;0.154;2022-09-13T10:10:41;101207.34;;;21.37;56.50
70407;BME280;57821;52.202;0.154;2022-09-13T10:13:17;101208.00;;;21.42;56.04
70407;BME280;57821;52.202;0.154;2022-09-13T10:15:58;101171.28;;;21.37;55.52
70407;BME280;57821;52.202;0.154;2022-09-13T10:18:27;101201.88;;;21.61;56.12
70407;BME280;57821;52.202;0.154;2022-09-13T10:23:47;101203.88;;;21.77;54.91
70407;BME280;57821;52.202;0.154;2022-09-13T10:26:24;101138.25;;;21.49;55.56
70407;BME280;57821;52.202;0.154;2022-09-13T10:31:19;101161.59;;;21.78;55.24
70407;BME280;57821;52.202;0.154;2022-09-13T10:36:18;101188.91;;;22.18;53.98
70407;BME280;57821;52.202;0.154;2022-09-13T10:39:27;101177.84;;;22.28;53.23
70407;BME280;57821;52.202;0.154;2022-09-13T10:41:59;101175.16;;;22.30;53.66
70407;BME280;57821;52.202;0.154;2022-09-13T10:44:45;101174.59;;;22.42;53.11
70407;BME280;57821;52.202;0.154;2022-09-13T10:47:21;101170.72;;;22.49;53.13
70407;BME280;57821;52.202;0.154;2022-09-13T10:49:53;101173.06;;;22.55;51.98
70407;BME280;57821;52.202;0.154;2022-09-13T10:52:24;101171.06;;;22.60;52.31
70407;BME280;57821;52.202;0.154;2022-09-13T10:54:50;101176.00;;;22.68;52.04
70407;BME280;57821;52.202;0.154;2022-09-13T10:57:35;101176.44;;;22.77;51.03
70407;BME280;57821;52.202;0.154;2022-09-13T11:00:08;101158.16;;;22.73;51.61
70407;BME280;57821;52.202;0.154;2022-09-13T11:05:19;101171.06;;;22.98;51.17
70407;BME280;57821;52.202;0.154;2022-09-13T11:11:09;101178.41;;;23.10;50.96
70407;BME280;57821;52.202;0.154;2022-09-13T11:13:55;101176.56;;;23.12;50.48
70407;BME280;57821;52.202;0.154;2022-09-13T11:27:24;101136.59;;;22.82;49.28
70407;BME280;57821;52.202;0.154;2022-09-13T11:30:16;101154.56;;;22.92;48.49
70407;BME280;57821;52.202;0.154;2022-09-13T11:46:38;101129.69;;;22.42;51.04
70407;BME280;57821;52.202;0.154;2022-09-13T11:52:33;101161.28;;;22.62;50.79
70407;BME280;57821;52.202;0.154;2022-09-13T11:55:28;101163.00;;;22.63;50.60
70407;BME280;57821;52.202;0.154;2022-09-13T11:58:03;101165.50;;;22.66;50.42
70407;BME280;57821;52.202;0.154;2022-09-13T12:00:34;101173.44;;;22.66;50.70
70407;BME280;57821;52.202;0.154;2022-09-13T12:05:44;101148.59;;;22.51;50.16
70407;BME280;57821;52.202;0.154;2022-09-13T12:08:17;101190.75;;;22.73;50.45
70407;BME280;57821;52.202;0.154;2022-09-13T12:13:41;101180.91;;;22.77;50.16
70407;BME280;57821;52.202;0.154;2022-09-13T12:16:33;101187.81;;;22.79;50.09
70407;BME280;57821;52.202;0.154;2022-09-13T12:19:07;101176.59;;;22.74;50.00
70407;BME280;57821;52.202;0.154;2022-09-13T12:21:39;101190.22;;;22.84;49.90
70407;BME280;57821;52.202;0.154;2022-09-13T12:24:13;101187.75;;;22.81;50.04
70407;BME280;57821;52.202;0.154;2022-09-13T12:26:49;101168.13;;;22.66;49.99
70407;BME280;57821;52.202;0.154;2022-09-13T12:29:35;101180.97;;;22.75;50.48
70407;BME280;57821;52.202;0.154;2022-09-13T12:32:08;101166.16;;;22.71;49.44
70407;BME280;57821;52.202;0.154;2022-09-13T12:35:01;101199.03;;;22.84;49.33
70407;BME280;57821;52.202;0.154;2022-09-13T12:51:07;101212.69;;;22.94;49.12
70407;BME280;57821;52.202;0.154;2022-09-13T12:56:50;101216.03;;;22.98;49.09
70407;BME280;57821;52.202;0.154;2022-09-13T13:02:18;101202.63;;;23.01;48.54
70407;BME280;57821;52.202;0.154;2022-09-13T13:04:50;101201.88;;;22.99;49.18
70407;BME280;57821;52.202;0.154;2022-09-13T13:07:20;101195.03;;;22.95;48.45
70407;BME280;57821;52.202;0.154;2022-09-13T13:09:49;101184.59;;;22.91;48.47
70407;BME280;57821;52.202;0.154;2022-09-13T13:14:54;101189.75;;;22.95;49.44
70407;BME280;57821;52.202;0.154;2022-09-13T13:17:55;101180.09;;;22.93;48.10
70407;BME280;57821;52.202;0.154;2022-09-13T13:33:53;101153.63;;;23.29;48.68
70407;BME280;57821;52.202;0.154;2022-09-13T13:36:22;101133.47;;;23.27;48.04
70407;BME280;57821;52.202;0.154;2022-09-13T13:38:52;101155.47;;;23.46;47.88
70407;BME280;57821;52.202;0.154;2022-09-13T13:44:50;101156.06;;;23.51;47.15
70407;BME280;57821;52.202;0.154;2022-09-13T13:59:49;101150.19;;;23.45;47.32
70407;BME280;57821;52.202;0.154;2022-09-13T14:02:22;101134.56;;;23.40;46.78
70407;BME280;57821;52.202;0.154;2022-09-13T14:21:00;101132.31;;;23.67;46.63
70407;BME280;57821;52.202;0.154;2022-09-13T14:23:27;101133.00;;;23.70;45.44
70407;BME280;57821;52.202;0.154;2022-09-13T14:25:56;101137.69;;;23.65;46.35
70407;BME280;57821;52.202;0.154;2022-09-13T14:28:24;101132.38;;;23.65;46.21
70407;BME280;57821;52.202;0.154;2022-09-13T14:30:55;101112.50;;;23.58;45.84
70407;BME280;57821;52.202;0.154;2022-09-13T14:33:28;101126.00;;;23.69;46.39
70407;BME280;57821;52.202;0.154;2022-09-13T14:35:59;101118.06;;;23.69;46.11
70407;BME280;57821;52.202;0.154;2022-09-13T14:38:27;101126.69;;;23.73;46.35
70407;BME280;57821;52.202;0.154;2022-09-13T14:40:58;101126.56;;;23.76;45.92
70407;BME280;57821;52.202;0.154;2022-09-13T14:43:25;101124.41;;;23.83;46.36
70407;BME280;57821;52.202;0.154;2022-09-13T14:48:32;101112.81;;;23.85;45.25
70407;BME280;57821;52.202;0.154;2022-09-13T14:51:05;101118.91;;;23.87;44.97
70407;BME280;57821;52.202;0.154;2022-09-13T14:53:35;101113.34;;;23.92;45.13
70407;BME280;57821;52.202;0.154;2022-09-13T14:56:05;101117.53;;;23.96;45.33
70407;BME280;57821;52.202;0.154;2022-09-13T14:58:49;101111.91;;;24.02;44.30
70407;BME280;57821;52.202;0.154;2022-09-13T15:01:26;101086.94;;;23.90;44.59
70407;BME280;57821;52.202;0.154;2022-09-13T15:03:55;101110.66;;;24.09;45.25
70407;BME280;57821;52.202;0.154;2022-09-13T15:06:29;101118.97;;;24.19;45.00
70407;BME280;57821;52.202;0.154;2022-09-13T15:09:25;101113.19;;;24.28;44.64
70407;BME280;57821;52.202;0.154;2022-09-13T15:14:24;101088.81;;;24.21;44.33
70407;BME280;57821;52.202;0.154;2022-09-13T15:16:56;101066.72;;;24.05;44.86
70407;BME280;57821;52.202;0.154;2022-09-13T15:21:50;101077.28;;;24.22;44.88
70407;BME280;57821;52.202;0.154;2022-09-13T15:24:23;101064.13;;;24.21;44.49
70407;BME280;57821;52.202;0.154;2022-09-13T15:27:07;101074.53;;;24.24;44.18
70407;BME280;57821;52.202;0.154;2022-09-13T15:29:40;101076.09;;;24.28;44.51
70407;BME280;57821;52.202;0.154;2022-09-13T15:32:28;101082.66;;;24.21;45.34
70407;BME280;57821;52.202;0.154;2022-09-13T15:34:57;101070.59;;;24.15;44.60
70407;BME280;57821;52.202;0.154;2022-09-13T15:37:29;101043.66;;;23.91;44.44
70407;BME280;57821;52.202;0.154;2022-09-13T15:40:20;101042.84;;;23.89;44.82
70407;BME280;57821;52.202;0.154;2022-09-13T15:42:49;101038.59;;;23.87;45.39
70407;BME280;57821;52.202;0.154;2022-09-13T15:45:17;101065.69;;;23.92;44.95
70407;BME280;57821;52.202;0.154;2022-09-13T15:47:45;101068.81;;;23.83;45.42
70407;BME280;57821;52.202;0.154;2022-09-13T15:52:46;101053.69;;;23.69;45.71
70407;BME280;57821;52.202;0.154;2022-09-13T15:55:12;101063.41;;;23.68;46.52
70407;BME280;57821;52.202;0.154;2022-09-13T15:57:42;101048.97;;;23.58;45.74
70407;BME280;57821;52.202;0.154;2022-09-13T16:00:14;101039.31;;;23.40;46.10
70407;BME280;57821;52.202;0.154;2022-09-13T16:02:41;101059.88;;;23.52;47.01
70407;BME280;57821;52.202;0.154;2022-09-13T16:05:08;101049.28;;;23.52;46.29
70407;BME280;57821;52.202;0.154;2022-09-13T16:07:34;101053.94;;;23.47;46.11
70407;BME280;57821;52.202;0.154;2022-09-13T16:10:01;101054.56;;;23.35;45.95
70407;BME280;57821;52.202;0.154;2022-09-13T16:12:27;101046.56;;;23.19;46.52
70407;BME280;57821;52.202;0.154;2022-09-13T16:14:54;101045.88;;;23.16;46.62
70407;BME280;57821;52.202;0.154;2022-09-13T16:17:24;101035.44;;;23.13;46.48
70407;BME280;57821;52.202;0.154;2022-09-13T16:19:52;101039.16;;;23.09;46.62
70407;BME280;57821;52.202;0.154;2022-09-13T16:22:18;101032.34;;;23.05;46.87
70407;BME280;57821;52.202;0.154;2022-09-13T16:24:45;101035.75;;;23.07;47.28
70407;BME280;57821;52.202;0.154;2022-09-13T16:27:14;101030.56;;;23.05;47.06